Time;durP1;ratioP1;P1;durP2;ratioP2;P2;SDS_P1;SDS_P2;PMS_P1;PMS_P2;Temp;Humidity;BMP_temperature;BMP_pressure;BME280_temperature;BME280_humidity;BME280_pressure;Samples;Min_cycle;Max_cycle;Signal;HPM_P1;HPM_P2
2023/04/01 00:02:35;;;;;;;15.00;6.18;;;;;;;0.00;100.00;59042.03;10368483;28;20538;-74
2023/04/01 00:07:36;;;;;;;17.23;8.35;;;;;;;0.00;100.00;59042.03;10383711;28;20037;-74
2023/04/01 00:12:38;;;;;;;22.67;9.82;;;;;;;0.00;100.00;59042.03;10382559;28;20388;-74
2023/04/01 00:17:38;;;;;;;30.67;10.30;;;;;;;0.00;100.00;59042.03;10381684;28;20083;-73
2023/04/01 00:22:39;;;;;;;16.53;10.17;;;;;;;0.00;100.00;59042.03;10381717;28;20135;-73
2023/04/01 00:27:40;;;;;;;18.38;8.80;;;;;;;0.00;100.00;59042.03;10382886;28;20367;-74
2023/04/01 00:32:41;;;;;;;17.02;7.97;;;;;;;0.00;100.00;59042.03;10381379;28;20029;-73
2023/04/01 00:37:41;;;;;;;16.92;8.15;;;;;;;0.00;100.00;59042.03;10382276;28;20040;-72
2023/04/01 00:42:41;;;;;;;19.33;8.60;;;;;;;0.00;100.00;59042.03;10380669;28;20021;-72
2023/04/01 00:47:42;;;;;;;22.63;8.63;;;;;;;0.00;100.00;59042.03;10382153;28;20729;-73
2023/04/01 00:52:42;;;;;;;19.13;8.05;;;;;;;0.00;100.00;59042.03;10379723;28;20315;-73
2023/04/01 00:57:45;;;;;;;16.25;7.13;;;;;;;0.00;100.00;59042.03;10381773;28;20496;-72
2023/04/01 01:02:47;;;;;;;15.63;5.60;;;;;;;0.00;100.00;59042.03;10380274;28;20383;-73
2023/04/01 01:08:22;;;;;;;12.07;5.53;;;;;;;0.00;100.00;59042.03;10380432;28;20029;-73
2023/04/01 01:13:27;;;;;;;11.73;5.65;;;;;;;0.00;100.00;59042.03;10381045;28;20105;-73
2023/04/01 01:18:48;;;;;;;12.38;5.93;;;;;;;0.00;100.00;59042.03;10380669;28;20157;-73
2023/04/01 01:24:03;;;;;;;18.45;5.70;;;;;;;0.00;100.00;59042.03;10379323;28;20029;-72
2023/04/01 01:29:21;;;;;;;11.93;4.97;;;;;;;0.00;100.00;59042.03;10380095;28;20492;-72
2023/04/01 01:34:37;;;;;;;7.93;4.95;;;;;;;0.00;100.00;59042.03;10380056;28;20080;-72
2023/04/01 01:39:38;;;;;;;17.23;4.13;;;;;;;0.00;100.00;59042.03;10380098;28;20037;-73
2023/04/01 01:44:42;;;;;;;8.40;3.80;;;;;;;0.00;100.00;59042.03;10367567;28;20091;-74
2023/04/01 01:49:44;;;;;;;10.25;4.00;;;;;;;0.00;100.00;59042.03;10380210;28;20048;-74
2023/04/01 01:54:52;;;;;;;10.20;4.07;;;;;;;0.00;100.00;59042.03;10379364;28;20053;-74
2023/04/01 01:59:58;;;;;;;9.63;4.38;;;;;;;0.00;100.00;59042.03;10366399;28;20091;-75
2023/04/01 02:04:59;;;;;;;12.50;3.47;;;;;;;0.00;100.00;59042.03;10379995;28;20159;-73
2023/04/01 02:10:00;;;;;;;8.82;3.50;;;;;;;0.00;100.00;59042.03;10365914;28;20622;-74
2023/04/01 02:15:09;;;;;;;8.15;3.20;;;;;;;0.00;100.00;59042.03;10379446;28;20037;-74
2023/04/01 02:20:17;;;;;;;8.45;3.25;;;;;;;0.00;100.00;59042.03;10379255;28;20638;-75
2023/04/01 02:25:22;;;;;;;11.25;3.90;;;;;;;0.00;100.00;59042.03;10378794;28;20034;-73
2023/04/01 02:30:24;;;;;;;8.55;3.08;;;;;;;0.00;100.00;59042.03;10368479;28;20061;-74
2023/04/01 02:35:25;;;;;;;10.57;4.28;;;;;;;0.00;100.00;59042.03;10381768;28;20041;-74
2023/04/01 02:40:26;;;;;;;10.25;3.88;;;;;;;0.00;100.00;59042.03;10356010;28;20504;-72
2023/04/01 02:45:26;;;;;;;7.97;3.47;;;;;;;0.00;100.00;59042.03;10343839;28;20447;-73
2023/04/01 02:50:27;;;;;;;11.50;3.33;;;;;;;0.00;100.00;59042.03;10345647;28;20095;-72
2023/04/01 02:55:27;;;;;;;9.80;3.85;;;;;;;0.00;100.00;59042.03;10370567;28;20057;-72
2023/04/01 03:00:28;;;;;;;7.93;3.17;;;;;;;0.00;100.00;59042.03;10358914;28;20488;-73
2023/04/01 03:05:29;;;;;;;9.88;3.97;;;;;;;0.00;100.00;59042.03;10351205;28;20450;-74
2023/04/01 03:10:29;;;;;;;7.95;4.15;;;;;;;0.00;100.00;59042.03;10382813;28;20056;-73
2023/04/01 03:15:30;;;;;;;12.13;4.43;;;;;;;0.00;100.00;59042.03;10383659;28;20079;-73
2023/04/01 03:20:30;;;;;;;9.15;3.92;;;;;;;0.00;100.00;59042.03;10381906;28;20061;-73
2023/04/01 03:25:30;;;;;;;9.30;4.60;;;;;;;0.00;100.00;59042.03;10383307;28;20048;-73
2023/04/01 03:30:31;;;;;;;9.55;3.92;;;;;;;0.00;100.00;59042.03;10385646;28;20284;-73
2023/04/01 03:35:32;;;;;;;11.02;4.65;;;;;;;0.00;100.00;59042.03;10382216;28;20469;-73
2023/04/01 03:40:34;;;;;;;15.45;4.47;;;;;;;0.00;100.00;59042.03;10391170;28;20025;-74
2023/04/01 03:45:34;;;;;;;13.38;4.88;;;;;;;0.00;100.00;59042.03;10385299;28;20673;-73
2023/04/01 03:50:35;;;;;;;11.25;4.95;;;;;;;0.00;100.00;59042.03;10382214;28;20041;-74
2023/04/01 03:55:36;;;;;;;10.05;5.85;;;;;;;0.00;100.00;59042.03;10381864;28;20512;-74
2023/04/01 04:00:37;;;;;;;11.43;4.47;;;;;;;0.00;100.00;59042.03;10381971;28;20041;-73
2023/04/01 04:05:37;;;;;;;9.75;5.55;;;;;;;0.00;100.00;59042.03;10381865;28;20119;-72
2023/04/01 04:10:38;;;;;;;15.25;6.68;;;;;;;0.00;100.00;59042.03;10381277;28;20130;-74
2023/04/01 04:15:39;;;;;;;13.30;6.43;;;;;;;0.00;100.00;59042.03;10381119;28;20033;-73
2023/04/01 04:20:48;;;;;;;12.27;6.10;;;;;;;0.00;100.00;59042.03;10381318;28;20118;-72
2023/04/01 04:26:00;;;;;;;11.73;5.20;;;;;;;0.00;100.00;59042.03;10381034;28;20017;-72
2023/04/01 04:31:01;;;;;;;10.10;4.82;;;;;;;0.00;100.00;59042.03;10380904;28;20033;-74
2023/04/01 04:36:03;;;;;;;9.77;4.32;;;;;;;0.00;100.00;59042.03;10373125;28;20068;-73
2023/04/01 04:41:07;;;;;;;16.95;5.05;;;;;;;0.00;100.00;59042.03;10375005;28;20045;-72
2023/04/01 04:46:09;;;;;;;7.97;3.25;;;;;;;0.00;100.00;59042.03;10379799;28;20109;-73
2023/04/01 04:51:14;;;;;;;12.52;3.83;;;;;;;0.00;100.00;59042.03;10380029;28;20029;-72
2023/04/01 04:56:19;;;;;;;5.40;3.03;;;;;;;0.00;100.00;59042.03;10379723;28;20045;-72
2023/04/01 05:01:20;;;;;;;5.85;3.45;;;;;;;0.00;100.00;59042.03;10379611;28;20033;-73
2023/04/01 05:06:20;;;;;;;14.60;3.17;;;;;;;0.00;100.00;59042.03;10378831;28;20782;-73
2023/04/01 05:11:21;;;;;;;10.10;3.75;;;;;;;0.00;100.00;59042.03;10388809;28;20511;-72
2023/04/01 05:16:21;;;;;;;14.00;4.13;;;;;;;0.00;100.00;59042.03;10380383;28;20025;-72
2023/04/01 05:21:22;;;;;;;15.13;5.35;;;;;;;0.00;100.00;59042.03;10380703;28;20507;-74
2023/04/01 05:26:22;;;;;;;10.95;5.35;;;;;;;0.00;100.00;59042.03;10380070;28;20025;-74
2023/04/01 05:31:23;;;;;;;13.88;5.22;;;;;;;0.00;100.00;59042.03;10383640;28;20069;-74
2023/04/01 05:36:24;;;;;;;12.85;5.80;;;;;;;0.00;100.00;59042.03;10389379;28;20033;-73
2023/04/01 05:41:25;;;;;;;13.73;5.30;;;;;;;0.00;100.00;59042.03;10358305;28;20025;-72
2023/04/01 05:46:25;;;;;;;16.17;6.03;;;;;;;0.00;100.00;59042.03;10356149;28;20040;-70
2023/04/01 05:51:26;;;;;;;17.45;5.80;;;;;;;0.00;100.00;59042.03;10352066;28;20032;-70
2023/04/01 05:56:26;;;;;;;24.17;5.72;;;;;;;0.00;100.00;59042.03;10341659;28;20042;-71
2023/04/01 06:01:26;;;;;;;10.63;4.30;;;;;;;0.00;100.00;59042.03;10335705;28;20042;-73
2023/04/01 06:06:29;;;;;;;10.80;4.05;;;;;;;0.00;100.00;59042.03;10337045;28;20342;-72
2023/04/01 06:12:02;;;;;;;8.55;3.00;;;;;;;0.00;100.00;59042.03;10342113;28;20526;-69
2023/04/01 06:17:06;;;;;;;19.75;4.90;;;;;;;0.00;100.00;59042.03;10343027;28;20760;-73
2023/04/01 06:22:43;;;;;;;9.10;4.30;;;;;;;0.00;100.00;59042.03;10346922;28;20124;-72
2023/04/01 06:27:59;;;;;;;12.38;3.80;;;;;;;0.00;100.00;59042.03;10346209;28;20117;-74
2023/04/01 06:33:15;;;;;;;10.75;4.55;;;;;;;0.00;100.00;59042.03;10369400;28;20084;-73
2023/04/01 06:38:20;;;;;;;18.27;4.97;;;;;;;0.00;100.00;59042.03;10351303;28;20445;-73
2023/04/01 06:43:35;;;;;;;12.15;4.50;;;;;;;0.00;100.00;59042.03;10348038;28;20042;-72
2023/04/01 06:48:53;;;;;;;24.02;5.28;;;;;;;0.00;100.00;59042.03;10353152;28;20112;-75
2023/04/01 06:54:00;;;;;;;10.75;5.07;;;;;;;0.00;100.00;59042.03;10344350;28;20061;-75
2023/04/01 06:59:08;;;;;;;18.88;5.63;;;;;;;0.00;100.00;59042.03;10351479;28;20038;-74
2023/04/01 07:04:15;;;;;;;;;;;;;;;0.00;100.00;59042.03;10352434;28;20041;-71
2023/04/01 07:09:24;;;;;;;11.27;5.38;;;;;;;0.00;100.00;59042.03;10352159;28;19919;-73
2023/04/01 07:14:40;;;;;;;18.45;5.95;;;;;;;0.00;100.00;59042.03;10359266;28;20492;-77
2023/04/01 07:20:15;;;;;;;16.95;5.95;;;;;;;0.00;100.00;59042.03;10353570;28;20021;-75
2023/04/01 07:25:28;;;;;;;17.63;5.47;;;;;;;0.00;100.00;59042.03;10344817;28;20081;-74
2023/04/01 07:30:37;;;;;;;12.60;5.78;;;;;;;0.00;100.00;59042.03;10351493;28;20056;-74
2023/04/01 07:35:42;;;;;;;23.13;5.72;;;;;;;0.00;100.00;59042.03;10352224;28;20042;-74
2023/04/01 07:40:48;;;;;;;10.88;4.53;;;;;;;0.00;100.00;59042.03;10340368;28;20034;-74
2023/04/01 07:46:38;;;;;;;17.20;5.90;;;;;;;0.00;100.00;59042.03;10354425;28;20030;-75
2023/04/01 07:52:13;;;;;;;13.65;5.78;;;;;;;0.00;100.00;59042.03;10352870;28;20117;-73
2023/04/01 07:57:33;;;;;;;10.45;5.15;;;;;;;0.00;100.00;59042.03;10342663;28;20065;-73
2023/04/01 08:02:59;;;;;;;12.25;5.15;;;;;;;0.00;100.00;59042.03;10348140;28;20041;-72
2023/04/01 08:08:10;;;;;;;22.77;5.57;;;;;;;0.00;100.00;59042.03;10348802;28;20048;-72
2023/04/01 08:13:29;;;;;;;16.17;5.57;;;;;;;0.00;100.00;59042.03;10348536;28;20068;-72
2023/04/01 08:18:54;;;;;;;14.13;4.90;;;;;;;0.00;100.00;59042.03;10343859;28;20037;-73
2023/04/01 08:24:05;;;;;;;12.10;5.22;;;;;;;0.00;100.00;59042.03;10345040;28;20017;-73
2023/04/01 08:29:15;;;;;;;16.70;5.30;;;;;;;0.00;100.00;59042.03;10357405;28;20082;-71
2023/04/01 08:34:20;;;;;;;16.95;4.78;;;;;;;0.00;100.00;59042.03;10353881;28;20030;-73
2023/04/01 08:39:38;;;;;;;15.30;5.22;;;;;;;0.00;100.00;59042.03;10347384;28;20033;-73
2023/04/01 08:45:15;;;;;;;18.08;4.15;;;;;;;0.00;100.00;59042.03;10352583;28;20032;-74
2023/04/01 08:51:00;;;;;;;8.85;4.35;;;;;;;0.00;100.00;59042.03;10344596;28;20037;-74
2023/04/01 08:56:01;;;;;;;13.02;4.95;;;;;;;0.00;100.00;59042.03;10343304;28;20396;-73
2023/04/01 09:01:39;;;;;;;10.90;4.20;;;;;;;0.00;100.00;59042.03;10348861;28;20123;-76
2023/04/01 09:07:11;;;;;;;13.43;4.90;;;;;;;0.00;100.00;59042.03;10349325;28;20109;-75
2023/04/01 09:12:35;;;;;;;17.60;5.10;;;;;;;0.00;100.00;59042.03;10345794;28;20033;-74
2023/04/01 09:17:48;;;;;;;10.20;3.90;;;;;;;0.00;100.00;59042.03;10327172;28;20111;-75
2023/04/01 09:23:02;;;;;;;5.90;3.35;;;;;;;0.00;100.00;59042.03;10349731;28;20480;-74
2023/04/01 09:28:44;;;;;;;13.82;4.18;;;;;;;0.00;100.00;59042.03;10352683;28;20025;-74
2023/04/01 09:33:47;;;;;;;11.10;4.25;;;;;;;0.00;100.00;59042.03;10342433;28;20034;-74
2023/04/01 09:38:54;;;;;;;8.15;3.50;;;;;;;0.00;100.00;59042.03;10346174;28;20042;-74
2023/04/01 09:44:12;;;;;;;12.45;3.10;;;;;;;0.00;100.00;59042.03;10345582;28;20095;-74
2023/04/01 09:49:34;;;;;;;10.30;2.90;;;;;;;0.00;100.00;59042.03;10347893;28;20025;-73
2023/04/01 09:54:42;;;;;;;8.75;2.75;;;;;;;0.00;100.00;59042.03;10348311;28;20847;-75
2023/04/01 10:00:06;;;;;;;12.55;4.30;;;;;;;0.00;100.00;59042.03;10358428;28;20029;-72
2023/04/01 10:05:24;;;;;;;11.32;3.80;;;;;;;0.00;100.00;59042.03;10353745;28;20026;-73
2023/04/01 10:10:46;;;;;;;15.98;2.58;;;;;;;0.00;100.00;59042.03;10366687;28;20042;-74
2023/04/01 10:16:01;;;;;;;8.68;2.95;;;;;;;0.00;100.00;59042.03;10343836;28;20025;-73
2023/04/01 10:21:35;;;;;;;11.30;3.33;;;;;;;0.00;100.00;59042.03;10348294;28;20030;-74
2023/04/01 10:26:54;;;;;;;7.93;3.50;;;;;;;0.00;100.00;59042.03;10348791;28;20079;-73
2023/04/01 10:32:36;;;;;;;5.72;3.03;;;;;;;0.00;100.00;59042.03;10342976;28;20480;-73
2023/04/01 10:37:53;;;;;;;7.20;3.30;;;;;;;0.00;100.00;59042.03;10354641;28;20025;-74
2023/04/01 10:43:18;;;;;;;12.85;3.47;;;;;;;0.00;100.00;59042.03;10345933;28;20034;-71
2023/04/01 10:48:47;;;;;;;8.32;2.70;;;;;;;0.00;100.00;59042.03;10349377;28;20032;-73
2023/04/01 10:53:59;;;;;;;9.90;3.05;;;;;;;0.00;100.00;59042.03;10354406;28;20034;-74
2023/04/01 10:59:27;;;;;;;18.75;2.50;;;;;;;0.00;100.00;59042.03;10347938;28;20033;-73
2023/04/01 11:04:56;;;;;;;13.52;4.25;;;;;;;0.00;100.00;59042.03;10355429;28;20395;-73
2023/04/01 11:10:31;;;;;;;8.27;2.92;;;;;;;0.00;100.00;59042.03;10355363;28;20018;-73
2023/04/01 11:15:56;;;;;;;103.50;48.97;;;;;;;0.00;100.00;59042.03;10334679;28;20469;-73
2023/04/01 11:21:24;;;;;;;15.82;2.92;;;;;;;0.00;100.00;59042.03;10351204;28;20500;-72
2023/04/01 11:26:31;;;;;;;11.13;3.28;;;;;;;0.00;100.00;59042.03;10357549;28;20034;-73
2023/04/01 11:32:02;;;;;;;3.63;1.33;;;;;;;0.00;100.00;59042.03;10345556;28;20056;-73
2023/04/01 11:37:21;;;;;;;7.10;2.00;;;;;;;0.00;100.00;59042.03;10356913;28;20065;-73
2023/04/01 11:42:46;;;;;;;8.65;3.08;;;;;;;0.00;100.00;59042.03;10356728;28;20022;-72
2023/04/01 11:47:46;;;;;;;5.88;1.30;;;;;;;0.00;100.00;59042.03;10351002;28;20025;-73
2023/04/01 11:53:05;;;;;;;13.27;2.33;;;;;;;0.00;100.00;59042.03;10359433;28;20029;-73
2023/04/01 11:58:27;;;;;;;4.50;1.98;;;;;;;0.00;100.00;59042.03;10354971;28;20299;-72
2023/04/01 12:03:48;;;;;;;7.70;2.80;;;;;;;0.00;100.00;59042.03;10348015;28;20045;-73
2023/04/01 12:09:09;;;;;;;10.32;3.72;;;;;;;0.00;100.00;59042.03;10354811;28;20044;-72
2023/04/01 12:14:27;;;;;;;11.93;4.07;;;;;;;0.00;100.00;59042.03;10352819;28;20437;-73
2023/04/01 12:19:49;;;;;;;12.80;4.85;;;;;;;0.00;100.00;59042.03;10350436;28;20048;-73
2023/04/01 12:25:20;;;;;;;8.50;3.30;;;;;;;0.00;100.00;59042.03;10357174;28;20022;-73
2023/04/01 12:30:54;;;;;;;8.02;3.13;;;;;;;0.00;100.00;59042.03;10317355;28;20037;-73
2023/04/01 12:36:22;;;;;;;6.95;3.53;;;;;;;0.00;100.00;59042.03;10349554;28;20690;-73
2023/04/01 12:41:38;;;;;;;4.30;3.30;;;;;;;0.00;100.00;59042.03;10357061;28;20061;-73
2023/04/01 12:46:57;;;;;;;12.80;4.57;;;;;;;0.00;100.00;59042.03;10350966;28;20430;-73
2023/04/01 12:52:06;;;;;;;13.95;4.50;;;;;;;0.00;100.00;59042.03;10348127;28;20072;-73
2023/04/01 12:57:28;;;;;;;6.75;4.10;;;;;;;0.00;100.00;59042.03;10349518;28;20050;-72
2023/04/01 13:02:35;;;;;;;9.75;3.60;;;;;;;0.00;100.00;59042.03;10359005;28;20021;-73
2023/04/01 13:07:59;;;;;;;7.85;4.32;;;;;;;0.00;100.00;59042.03;10346336;28;20037;-73
2023/04/01 13:13:37;;;;;;;13.68;4.40;;;;;;;0.00;100.00;59042.03;10351803;28;20034;-73
2023/04/01 13:18:43;;;;;;;7.18;3.00;;;;;;;0.00;100.00;59042.03;10352092;28;20061;-73
2023/04/01 13:23:46;;;;;;;10.15;2.78;;;;;;;0.00;100.00;59042.03;10348069;28;20044;-74
2023/04/01 13:29:02;;;;;;;5.85;1.63;;;;;;;0.00;100.00;59042.03;10346593;28;20030;-72
2023/04/01 13:34:13;;;;;;;5.20;1.92;;;;;;;0.00;100.00;59042.03;10350094;28;20032;-72
2023/04/01 13:39:29;;;;;;;4.63;1.40;;;;;;;0.00;100.00;59042.03;10351962;28;20114;-73
2023/04/01 13:44:59;;;;;;;1.50;1.00;;;;;;;0.00;100.00;59042.03;10345137;28;20022;-74
2023/04/01 13:50:24;;;;;;;2.60;1.70;;;;;;;0.00;100.00;59042.03;10327954;28;20583;-74
2023/04/01 13:55:49;;;;;;;5.80;1.92;;;;;;;0.00;100.00;59042.03;10354352;28;20453;-72
2023/04/01 14:01:00;;;;;;;4.38;1.35;;;;;;;0.00;100.00;59042.03;10353431;28;20037;-73
2023/04/01 14:06:18;;;;;;;3.17;1.40;;;;;;;0.00;100.00;59042.03;10358585;28;20105;-71
2023/04/01 14:11:32;;;;;;;7.40;2.83;;;;;;;0.00;100.00;59042.03;10354135;28;20036;-71
2023/04/01 14:16:43;;;;;;;12.15;4.60;;;;;;;0.00;100.00;59042.03;10349644;28;20087;-72
2023/04/01 14:21:50;;;;;;;11.27;5.15;;;;;;;0.00;100.00;59042.03;10360648;28;20018;-72
2023/04/01 14:27:17;;;;;;;12.63;3.88;;;;;;;0.00;100.00;59042.03;10352199;28;20033;-74
2023/04/01 14:32:43;;;;;;;13.15;4.75;;;;;;;0.00;100.00;59042.03;10353095;28;20052;-72
2023/04/01 14:38:12;;;;;;;7.03;3.13;;;;;;;0.00;100.00;59042.03;10359502;28;20034;-73
2023/04/01 14:43:31;;;;;;;4.65;3.00;;;;;;;0.00;100.00;59042.03;10352301;28;20029;-76
2023/04/01 14:48:39;;;;;;;8.95;2.85;;;;;;;0.00;100.00;59042.03;10353979;28;20149;-72
2023/04/01 14:53:53;;;;;;;7.87;3.47;;;;;;;0.00;100.00;59042.03;10356347;28;20220;-71
2023/04/01 14:58:57;;;;;;;9.32;2.95;;;;;;;0.00;100.00;59042.03;10352383;28;20041;-74
2023/04/01 15:04:16;;;;;;;5.10;2.35;;;;;;;0.00;100.00;59042.03;10348663;28;20038;-76
2023/04/01 15:09:20;;;;;;;;;;;;;;;0.00;100.00;59042.03;10350026;28;20041;-71
2023/04/01 15:14:38;;;;;;;5.75;2.92;;;;;;;0.00;100.00;59042.03;10351005;28;19917;-74
2023/04/01 15:20:11;;;;;;;5.38;3.53;;;;;;;0.00;100.00;59042.03;10355732;28;20601;-74
2023/04/01 15:25:31;;;;;;;6.95;3.75;;;;;;;0.00;100.00;59042.03;10353203;28;20041;-76
2023/04/01 15:30:53;;;;;;;9.15;3.50;;;;;;;0.00;100.00;59042.03;10354285;28;20034;-76
2023/04/01 15:36:15;;;;;;;11.18;4.40;;;;;;;0.00;100.00;59042.03;10358090;28;20030;-74
2023/04/01 15:41:22;;;;;;;12.50;5.22;;;;;;;0.00;100.00;59042.03;10352483;28;20751;-73
2023/04/01 15:46:22;;;;;;;11.77;4.27;;;;;;;0.00;100.00;59042.03;10358930;28;20404;-78
2023/04/01 15:51:45;;;;;;;11.10;3.70;;;;;;;0.00;100.00;59042.03;10358928;28;20516;-71
2023/04/01 15:57:11;;;;;;;6.50;2.03;;;;;;;0.00;100.00;59042.03;10351174;28;20395;-70
2023/04/01 16:02:14;;;;;;;1.92;1.40;;;;;;;0.00;100.00;59042.03;10354712;28;20041;-71
2023/04/01 16:07:42;;;;;;;5.43;2.05;;;;;;;0.00;100.00;59042.03;10356422;28;20118;-70
2023/04/01 16:12:48;;;;;;;7.13;2.63;;;;;;;0.00;100.00;59042.03;10347369;28;20119;-70
2023/04/01 16:18:03;;;;;;;4.35;2.88;;;;;;;0.00;100.00;59042.03;10355662;28;20038;-69
2023/04/01 16:23:26;;;;;;;5.13;2.85;;;;;;;0.00;100.00;59042.03;10350609;28;20038;-70
2023/04/01 16:28:32;;;;;;;9.48;3.08;;;;;;;0.00;100.00;59042.03;10350169;28;20041;-78
2023/04/01 16:33:52;;;;;;;5.30;3.15;;;;;;;0.00;100.00;59042.03;10350433;28;20029;-74
2023/04/01 16:39:21;;;;;;;5.30;3.05;;;;;;;0.00;100.00;59042.03;10345999;28;20511;-82
2023/04/01 16:44:29;;;;;;;4.95;3.05;;;;;;;0.00;100.00;59042.03;10345943;28;20637;-80
2023/04/01 16:49:40;;;;;;;5.13;2.25;;;;;;;0.00;100.00;59042.03;10354784;28;20026;-79
2023/04/01 16:55:21;;;;;;;4.80;2.65;;;;;;;0.00;100.00;59042.03;10350448;28;20038;-79
2023/04/01 17:00:24;;;;;;;4.05;2.38;;;;;;;0.00;100.00;59042.03;10235446;28;20501;-74
2023/04/01 17:06:00;;;;;;;3.00;1.58;;;;;;;0.00;100.00;59042.03;10325660;28;20037;-75
2023/04/01 17:11:25;;;;;;;7.88;2.00;;;;;;;0.00;100.00;59042.03;10349134;28;20092;-72
2023/04/01 17:16:56;;;;;;;2.88;1.60;;;;;;;0.00;100.00;59042.03;10356011;28;20515;-73
2023/04/01 17:22:27;;;;;;;1.40;1.10;;;;;;;0.00;100.00;59042.03;10355537;28;20036;-74
2023/04/01 17:27:44;;;;;;;2.05;1.27;;;;;;;0.00;100.00;59042.03;10354463;28;20462;-75
2023/04/01 17:33:03;;;;;;;2.38;1.42;;;;;;;0.00;100.00;59042.03;10355848;28;20042;-75
2023/04/01 17:38:23;;;;;;;4.82;1.63;;;;;;;0.00;100.00;59042.03;10354126;28;20033;-76
2023/04/01 17:43:39;;;;;;;2.08;1.35;;;;;;;0.00;100.00;59042.03;10360717;28;20056;-78
2023/04/01 17:48:57;;;;;;;2.17;1.70;;;;;;;0.00;100.00;59042.03;10376289;28;20044;-75
2023/04/01 17:53:57;;;;;;;2.22;1.60;;;;;;;0.00;100.00;59042.03;10355022;28;20151;-73
2023/04/01 17:59:16;;;;;;;3.07;2.17;;;;;;;0.00;100.00;59042.03;10362091;28;20051;-78
2023/04/01 18:04:36;;;;;;;5.30;3.25;;;;;;;0.00;100.00;59042.03;10356508;28;20468;-72
2023/04/01 18:09:55;;;;;;;3.72;2.20;;;;;;;0.00;100.00;59042.03;10362775;28;20421;-72
2023/04/01 18:15:11;;;;;;;3.35;2.40;;;;;;;0.00;100.00;59042.03;10366564;28;20115;-74
2023/04/01 18:20:30;;;;;;;4.57;3.78;;;;;;;0.00;100.00;59042.03;10371114;28;20573;-73
2023/04/01 18:25:41;;;;;;;;;;;;;;;0.00;100.00;59042.03;10363128;28;20045;-73
2023/04/01 18:30:50;;;;;;;4.75;3.67;;;;;;;0.00;100.00;59042.03;10360271;28;20359;-72
2023/04/01 18:35:58;;;;;;;5.93;3.83;;;;;;;0.00;100.00;59042.03;10376808;28;20034;-72
2023/04/01 18:41:04;;;;;;;4.97;3.17;;;;;;;0.00;100.00;59042.03;10360316;28;20034;-75
2023/04/01 18:46:31;;;;;;;9.07;4.22;;;;;;;0.00;100.00;59042.03;10378768;28;20912;-75
2023/04/01 18:51:49;;;;;;;6.53;3.35;;;;;;;0.00;100.00;59042.03;10361332;28;20045;-75
2023/04/01 18:56:50;;;;;;;5.43;3.65;;;;;;;0.00;100.00;59042.03;10362824;28;20056;-75
2023/04/01 19:02:19;;;;;;;4.85;3.30;;;;;;;0.00;100.00;59042.03;10360297;28;20038;-73
2023/04/01 19:07:41;;;;;;;4.30;3.47;;;;;;;0.00;100.00;59042.03;10358630;28;20041;-73
2023/04/01 19:13:05;;;;;;;3.60;2.65;;;;;;;0.00;100.00;59042.03;10361392;28;20492;-74
2023/04/01 19:18:21;;;;;;;4.45;2.60;;;;;;;0.00;100.00;59042.03;10360048;28;20030;-76
2023/04/01 19:24:03;;;;;;;2.92;2.47;;;;;;;0.00;100.00;59042.03;10386600;28;20025;-73
2023/04/01 19:29:16;;;;;;;3.30;2.60;;;;;;;0.00;100.00;59042.03;10392232;28;20475;-73
2023/04/01 19:34:27;;;;;;;3.20;2.60;;;;;;;0.00;100.00;59042.03;10375621;28;20029;-75
2023/04/01 19:39:58;;;;;;;2.63;2.17;;;;;;;0.00;100.00;59042.03;10377418;28;20448;-75
2023/04/01 19:45:07;;;;;;;4.22;2.05;;;;;;;0.00;100.00;59042.03;10399210;28;20028;-72
2023/04/01 19:50:26;;;;;;;5.05;2.97;;;;;;;0.00;100.00;59042.03;10390550;28;20569;-75
2023/04/01 19:55:42;;;;;;;2.17;1.65;;;;;;;0.00;100.00;59042.03;10381884;28;20137;-74
2023/04/01 20:00:47;;;;;;;3.10;1.70;;;;;;;0.00;100.00;59042.03;10388073;28;20037;-74
2023/04/01 20:05:56;;;;;;;2.65;1.77;;;;;;;0.00;100.00;59042.03;10391164;28;20404;-73
2023/04/01 20:11:18;;;;;;;1.90;1.70;;;;;;;0.00;100.00;59042.03;10406653;28;20604;-73
2023/04/01 20:16:22;;;;;;;2.13;1.60;;;;;;;0.00;100.00;59042.03;10394586;28;20045;-73
2023/04/01 20:21:36;;;;;;;2.33;1.77;;;;;;;0.00;100.00;59042.03;10387261;28;20030;-74
2023/04/01 20:26:41;;;;;;;4.13;2.10;;;;;;;0.00;100.00;59042.03;10393425;28;20032;-73
2023/04/01 20:31:47;;;;;;;2.38;1.70;;;;;;;0.00;100.00;59042.03;10390442;28;20404;-74
2023/04/01 20:37:09;;;;;;;2.05;1.40;;;;;;;0.00;100.00;59042.03;10381538;28;20029;-71
2023/04/01 20:42:47;;;;;;;2.08;1.45;;;;;;;0.00;100.00;59042.03;10384454;28;20033;-72
2023/04/01 20:48:00;;;;;;;3.75;2.40;;;;;;;0.00;100.00;59042.03;10393154;28;20037;-72
2023/04/01 20:53:20;;;;;;;4.15;2.25;;;;;;;0.00;100.00;59042.03;10393123;28;20049;-71
2023/04/01 20:58:32;;;;;;;3.45;2.05;;;;;;;0.00;100.00;59042.03;10393545;28;20504;-71
2023/04/01 21:03:49;;;;;;;2.05;1.80;;;;;;;0.00;100.00;59042.03;10394900;28;20030;-71
2023/04/01 21:09:20;;;;;;;5.15;2.10;;;;;;;0.00;100.00;59042.03;10393922;28;20403;-72
2023/04/01 21:14:42;;;;;;;4.40;1.48;;;;;;;0.00;100.00;59042.03;10390467;28;20421;-72
2023/04/01 21:20:01;;;;;;;3.40;1.55;;;;;;;0.00;100.00;59042.03;10381456;28;20747;-71
2023/04/01 21:25:25;;;;;;;1.75;1.30;;;;;;;0.00;100.00;59042.03;10384027;28;20037;-71
2023/04/01 21:30:36;;;;;;;2.67;1.98;;;;;;;0.00;100.00;59042.03;10385468;28;20467;-71
2023/04/01 21:36:12;;;;;;;1.90;1.50;;;;;;;0.00;100.00;59042.03;10393302;28;20539;-71
2023/04/01 21:41:31;;;;;;;2.40;1.40;;;;;;;0.00;100.00;59042.03;10391584;28;20053;-72
2023/04/01 21:47:16;;;;;;;1.58;1.27;;;;;;;0.00;100.00;59042.03;10387784;28;20024;-72
2023/04/01 21:52:28;;;;;;;2.67;1.33;;;;;;;0.00;100.00;59042.03;10379559;28;20041;-72
2023/04/01 21:57:31;;;;;;;2.88;2.30;;;;;;;0.00;100.00;59042.03;10392526;28;20064;-72
2023/04/01 22:02:55;;;;;;;3.13;1.70;;;;;;;0.00;100.00;59042.03;10384926;28;20047;-72
2023/04/01 22:08:19;;;;;;;3.75;1.70;;;;;;;0.00;100.00;59042.03;10389879;28;20515;-70
2023/04/01 22:13:28;;;;;;;1.42;1.20;;;;;;;0.00;100.00;59042.03;10384154;28;20775;-71
2023/04/01 22:18:36;;;;;;;2.15;1.67;;;;;;;0.00;100.00;59042.03;10402193;28;20033;-72
2023/04/01 22:23:47;;;;;;;2.28;1.20;;;;;;;0.00;100.00;59042.03;10391214;28;20034;-73
2023/04/01 22:29:17;;;;;;;5.70;1.45;;;;;;;0.00;100.00;59042.03;10401480;28;20441;-73
2023/04/01 22:34:39;;;;;;;1.27;1.15;;;;;;;0.00;100.00;59042.03;10382770;28;20034;-72
2023/04/01 22:40:08;;;;;;;2.03;1.00;;;;;;;0.00;100.00;59042.03;10404808;28;20175;-72
2023/04/01 22:45:20;;;;;;;2.47;1.17;;;;;;;0.00;100.00;59042.03;10383572;28;20061;-72
2023/04/01 22:50:45;;;;;;;1.25;1.00;;;;;;;0.00;100.00;59042.03;10390118;28;20399;-72
2023/04/01 22:55:48;;;;;;;3.67;0.82;;;;;;;0.00;100.00;59042.03;10382087;28;20073;-71
2023/04/01 23:00:55;;;;;;;0.75;0.65;;;;;;;0.00;100.00;59042.03;10405219;28;20030;-72
2023/04/01 23:06:03;;;;;;;1.13;0.70;;;;;;;0.00;100.00;59042.03;10410644;28;20025;-71
2023/04/01 23:11:08;;;;;;;4.60;0.85;;;;;;;0.00;100.00;59042.03;10395648;28;20115;-72
2023/04/01 23:16:10;;;;;;;0.90;0.60;;;;;;;0.00;100.00;59042.03;10395252;28;20043;-71
2023/04/01 23:21:18;;;;;;;1.50;1.10;;;;;;;0.00;100.00;59042.03;10401538;28;20029;-71
2023/04/01 23:26:42;;;;;;;0.50;0.43;;;;;;;0.00;100.00;59042.03;10399290;28;20032;-71
2023/04/01 23:31:45;;;;;;;0.88;0.60;;;;;;;0.00;100.00;59042.03;10390093;28;20029;-72
2023/04/01 23:36:56;;;;;;;0.50;0.50;;;;;;;0.00;100.00;59042.03;10403321;28;20456;-72
2023/04/01 23:42:03;;;;;;;2.47;0.68;;;;;;;0.00;100.00;59042.03;10401348;28;20036;-71
2023/04/01 23:47:06;;;;;;;4.07;0.60;;;;;;;0.00;100.00;59042.03;10423901;28;20734;-71
2023/04/01 23:52:26;;;;;;;0.47;0.38;;;;;;;0.00;100.00;59042.03;10400802;28;20095;-71
2023/04/01 23:57:30;;;;;;;0.52;0.35;;;;;;;0.00;100.00;59042.03;10407322;28;20056;-71
